sensor_id;sensor_type;location;lat;lon;timestamp;P1;durP1;ratioP1;P2;durP2;ratioP2
38037;SDS011;23843;51.320;12.340;2022-08-14T04:30:59;0.70;;;0.70;;
38037;SDS011;23843;51.320;12.340;2022-08-14T04:33:24;1.00;;;1.00;;
38037;SDS011;23843;51.320;12.340;2022-08-14T04:35:53;5.30;;;4.80;;
38037;SDS011;23843;51.320;12.340;2022-08-14T04:38:19;3.95;;;3.65;;
38037;SDS011;23843;51.320;12.340;2022-08-14T04:40:45;4.70;;;4.30;;
38037;SDS011;23843;51.320;12.340;2022-08-14T04:43:10;3.55;;;3.25;;
38037;SDS011;23843;51.320;12.340;2022-08-14T04:45:36;2.70;;;2.50;;
38037;SDS011;23843;51.320;12.340;2022-08-14T04:48:06;1.60;;;1.50;;
38037;SDS011;23843;51.320;12.340;2022-08-14T04:50:32;2.47;;;2.28;;
38037;SDS011;23843;51.320;12.340;2022-08-14T04:52:58;1.80;;;1.70;;
38037;SDS011;23843;51.320;12.340;2022-08-14T04:55:23;1.42;;;1.33;;
38037;SDS011;23843;51.320;12.340;2022-08-14T04:57:49;1.30;;;1.20;;
38037;SDS011;23843;51.320;12.340;2022-08-14T05:00:14;1.13;;;1.02;;
38037;SDS011;23843;51.320;12.340;2022-08-14T05:02:40;1.00;;;0.90;;
38037;SDS011;23843;51.320;12.340;2022-08-14T05:05:07;1.27;;;1.17;;
38037;SDS011;23843;51.320;12.340;2022-08-14T05:07:37;2.08;;;1.88;;
38037;SDS011;23843;51.320;12.340;2022-08-14T05:10:02;1.50;;;1.40;;
38037;SDS011;23843;51.320;12.340;2022-08-14T05:12:28;1.35;;;1.25;;
38037;SDS011;23843;51.320;12.340;2022-08-14T05:14:54;1.60;;;1.50;;
38037;SDS011;23843;51.320;12.340;2022-08-14T05:17:19;1.67;;;1.58;;
38037;SDS011;23843;51.320;12.340;2022-08-14T05:19:45;1.27;;;1.17;;
38037;SDS011;23843;51.320;12.340;2022-08-14T05:22:11;1.10;;;1.10;;
38037;SDS011;23843;51.320;12.340;2022-08-14T05:24:37;0.90;;;0.90;;
38037;SDS011;23843;51.320;12.340;2022-08-14T05:27:02;1.40;;;1.30;;
38037;SDS011;23843;51.320;12.340;2022-08-14T05:29:35;1.10;;;1.00;;
38037;SDS011;23843;51.320;12.340;2022-08-14T05:32:01;1.60;;;1.50;;
38037;SDS011;23843;51.320;12.340;2022-08-14T05:34:26;1.98;;;1.58;;
38037;SDS011;23843;51.320;12.340;2022-08-14T05:36:52;1.90;;;1.80;;
38037;SDS011;23843;51.320;12.340;2022-08-14T05:39:19;1.80;;;1.70;;
38037;SDS011;23843;51.320;12.340;2022-08-14T05:41:44;3.70;;;3.40;;
38037;SDS011;23843;51.320;12.340;2022-08-14T05:44:12;2.53;;;2.33;;
38037;SDS011;23843;51.320;12.340;2022-08-14T05:46:37;4.80;;;4.50;;
38037;SDS011;23843;51.320;12.340;2022-08-14T05:49:03;2.90;;;2.70;;
38037;SDS011;23843;51.320;12.340;2022-08-14T05:51:28;2.53;;;2.33;;
38037;SDS011;23843;51.320;12.340;2022-08-14T05:53:54;2.42;;;2.22;;
38037;SDS011;23843;51.320;12.340;2022-08-14T05:56:21;2.20;;;2.10;;
38037;SDS011;23843;51.320;12.340;2022-08-14T05:58:47;3.88;;;3.58;;
38037;SDS011;23843;51.320;12.340;2022-08-14T06:01:12;2.83;;;2.63;;
38037;SDS011;23843;51.320;12.340;2022-08-14T06:03:38;2.10;;;2.00;;
38037;SDS011;23843;51.320;12.340;2022-08-14T06:06:03;3.03;;;2.83;;
38037;SDS011;23843;51.320;12.340;2022-08-14T06:08:30;2.40;;;2.20;;
38037;SDS011;23843;51.320;12.340;2022-08-14T06:10:56;3.13;;;2.92;;
38037;SDS011;23843;51.320;12.340;2022-08-14T06:13:24;2.65;;;2.45;;
38037;SDS011;23843;51.320;12.340;2022-08-14T06:15:50;8.10;;;7.40;;
38037;SDS011;23843;51.320;12.340;2022-08-14T06:18:15;5.10;;;4.70;;
38037;SDS011;23843;51.320;12.340;2022-08-14T06:20:41;6.38;;;5.88;;
38037;SDS011;23843;51.320;12.340;2022-08-14T06:23:07;4.80;;;4.40;;
38037;SDS011;23843;51.320;12.340;2022-08-14T06:25:33;4.63;;;4.28;;
38037;SDS011;23843;51.320;12.340;2022-08-14T06:27:58;3.80;;;3.50;;
38037;SDS011;23843;51.320;12.340;2022-08-14T06:30:26;4.22;;;3.92;;
38037;SDS011;23843;51.320;12.340;2022-08-14T06:32:55;3.95;;;3.65;;
38037;SDS011;23843;51.320;12.340;2022-08-14T06:35:21;6.05;;;5.55;;
38037;SDS011;23843;51.320;12.340;2022-08-14T06:37:48;4.95;;;4.65;;
38037;SDS011;23843;51.320;12.340;2022-08-14T06:40:15;4.47;;;4.18;;
38037;SDS011;23843;51.320;12.340;2022-08-14T06:42:41;5.78;;;5.32;;
38037;SDS011;23843;51.320;12.340;2022-08-14T06:45:07;3.97;;;3.67;;
38037;SDS011;23843;51.320;12.340;2022-08-14T06:47:35;3.78;;;3.47;;
38037;SDS011;23843;51.320;12.340;2022-08-14T06:50:02;3.20;;;3.00;;
38037;SDS011;23843;51.320;12.340;2022-08-14T06:52:28;3.45;;;3.25;;
38037;SDS011;23843;51.320;12.340;2022-08-14T06:54:53;3.40;;;3.10;;
38037;SDS011;23843;51.320;12.340;2022-08-14T06:57:19;4.20;;;3.90;;
38037;SDS011;23843;51.320;12.340;2022-08-14T06:59:44;3.85;;;3.55;;
38037;SDS011;23843;51.320;12.340;2022-08-14T07:02:10;3.72;;;3.42;;
38037;SDS011;23843;51.320;12.340;2022-08-14T07:04:37;4.50;;;4.10;;
38037;SDS011;23843;51.320;12.340;2022-08-14T07:07:02;4.30;;;4.00;;
38037;SDS011;23843;51.320;12.340;2022-08-14T07:09:27;5.53;;;5.07;;
38037;SDS011;23843;51.320;12.340;2022-08-14T07:11:53;4.85;;;4.53;;
38037;SDS011;23843;51.320;12.340;2022-08-14T07:14:19;3.70;;;3.40;;
38037;SDS011;23843;51.320;12.340;2022-08-14T07:16:44;5.32;;;4.93;;
38037;SDS011;23843;51.320;12.340;2022-08-14T07:19:10;5.03;;;4.63;;
38037;SDS011;23843;51.320;12.340;2022-08-14T07:21:36;4.97;;;4.57;;
38037;SDS011;23843;51.320;12.340;2022-08-14T07:24:02;3.90;;;3.60;;
38037;SDS011;23843;51.320;12.340;2022-08-14T07:26:30;3.40;;;3.17;;
38037;SDS011;23843;51.320;12.340;2022-08-14T07:28:55;4.25;;;3.83;;
38037;SDS011;23843;51.320;12.340;2022-08-14T07:31:21;3.05;;;2.85;;
38037;SDS011;23843;51.320;12.340;2022-08-14T07:33:47;5.05;;;4.65;;
38037;SDS011;23843;51.320;12.340;2022-08-14T07:36:13;6.25;;;5.65;;
38037;SDS011;23843;51.320;12.340;2022-08-14T07:38:41;5.60;;;5.00;;
38037;SDS011;23843;51.320;12.340;2022-08-14T07:41:07;5.30;;;4.90;;
38037;SDS011;23843;51.320;12.340;2022-08-14T07:43:33;4.90;;;4.60;;
38037;SDS011;23843;51.320;12.340;2022-08-14T07:45:59;4.15;;;3.83;;
38037;SDS011;23843;51.320;12.340;2022-08-14T07:48:25;5.70;;;5.20;;
38037;SDS011;23843;51.320;12.340;2022-08-14T07:50:50;4.20;;;3.90;;
38037;SDS011;23843;51.320;12.340;2022-08-14T07:53:16;6.20;;;5.60;;
38037;SDS011;23843;51.320;12.340;2022-08-14T07:55:49;4.10;;;3.80;;
38037;SDS011;23843;51.320;12.340;2022-08-14T07:58:15;5.07;;;4.68;;
38037;SDS011;23843;51.320;12.340;2022-08-14T08:00:42;9.23;;;7.95;;
38037;SDS011;23843;51.320;12.340;2022-08-14T08:03:08;5.40;;;5.00;;
38037;SDS011;23843;51.320;12.340;2022-08-14T08:05:34;9.25;;;6.03;;
38037;SDS011;23843;51.320;12.340;2022-08-14T08:08:01;5.30;;;4.90;;
38037;SDS011;23843;51.320;12.340;2022-08-14T08:10:29;4.65;;;4.30;;
38037;SDS011;23843;51.320;12.340;2022-08-14T08:12:56;8.93;;;8.13;;
38037;SDS011;23843;51.320;12.340;2022-08-14T08:15:24;6.95;;;6.28;;
38037;SDS011;23843;51.320;12.340;2022-08-14T08:17:50;7.10;;;6.00;;
38037;SDS011;23843;51.320;12.340;2022-08-14T08:20:16;6.43;;;5.82;;
38037;SDS011;23843;51.320;12.340;2022-08-14T08:22:42;6.47;;;5.88;;
38037;SDS011;23843;51.320;12.340;2022-08-14T08:25:08;4.90;;;4.50;;
38037;SDS011;23843;51.320;12.340;2022-08-14T08:27:34;5.90;;;5.40;;
38037;SDS011;23843;51.320;12.340;2022-08-14T08:30:03;5.82;;;5.32;;
38037;SDS011;23843;51.320;12.340;2022-08-14T08:32:36;5.85;;;5.45;;
38037;SDS011;23843;51.320;12.340;2022-08-14T08:35:02;6.40;;;5.90;;
38037;SDS011;23843;51.320;12.340;2022-08-14T08:37:28;5.80;;;5.40;;
38037;SDS011;23843;51.320;12.340;2022-08-14T08:39:59;4.85;;;4.45;;
38037;SDS011;23843;51.320;12.340;2022-08-14T08:42:24;4.63;;;4.32;;
38037;SDS011;23843;51.320;12.340;2022-08-14T08:44:52;5.53;;;5.13;;
38037;SDS011;23843;51.320;12.340;2022-08-14T08:47:19;5.35;;;4.85;;
38037;SDS011;23843;51.320;12.340;2022-08-14T08:49:44;5.38;;;5.07;;
38037;SDS011;23843;51.320;12.340;2022-08-14T08:52:10;6.30;;;5.82;;
38037;SDS011;23843;51.320;12.340;2022-08-14T08:54:35;5.80;;;5.40;;
38037;SDS011;23843;51.320;12.340;2022-08-14T08:57:09;6.60;;;6.10;;
38037;SDS011;23843;51.320;12.340;2022-08-14T08:59:35;5.10;;;4.70;;
38037;SDS011;23843;51.320;12.340;2022-08-14T09:02:01;5.75;;;5.35;;
38037;SDS011;23843;51.320;12.340;2022-08-14T09:04:33;7.35;;;6.70;;
38037;SDS011;23843;51.320;12.340;2022-08-14T09:06:59;5.38;;;4.97;;
38037;SDS011;23843;51.320;12.340;2022-08-14T09:09:25;6.60;;;6.10;;
38037;SDS011;23843;51.320;12.340;2022-08-14T09:11:52;7.20;;;6.60;;
38037;SDS011;23843;51.320;12.340;2022-08-14T09:14:19;6.50;;;6.00;;
38037;SDS011;23843;51.320;12.340;2022-08-14T09:16:44;8.27;;;7.68;;
38037;SDS011;23843;51.320;12.340;2022-08-14T09:19:10;7.15;;;6.55;;
38037;SDS011;23843;51.320;12.340;2022-08-14T09:21:38;7.80;;;7.10;;
38037;SDS011;23843;51.320;12.340;2022-08-14T09:24:04;7.38;;;6.78;;
38037;SDS011;23843;51.320;12.340;2022-08-14T09:26:30;5.82;;;5.43;;
38037;SDS011;23843;51.320;12.340;2022-08-14T09:28:56;6.28;;;5.78;;
38037;SDS011;23843;51.320;12.340;2022-08-14T09:31:21;5.82;;;5.35;;
38037;SDS011;23843;51.320;12.340;2022-08-14T09:33:54;6.00;;;5.60;;
38037;SDS011;23843;51.320;12.340;2022-08-14T09:36:42;6.47;;;5.97;;
38037;SDS011;23843;51.320;12.340;2022-08-14T09:39:19;6.82;;;6.32;;
38037;SDS011;23843;51.320;12.340;2022-08-14T09:42:02;5.47;;;5.07;;
38037;SDS011;23843;51.320;12.340;2022-08-14T09:44:44;5.78;;;5.30;;
38037;SDS011;23843;51.320;12.340;2022-08-14T09:47:19;5.90;;;5.50;;
38037;SDS011;23843;51.320;12.340;2022-08-14T09:49:45;4.78;;;4.40;;
38037;SDS011;23843;51.320;12.340;2022-08-14T09:52:13;6.20;;;5.70;;
38037;SDS011;23843;51.320;12.340;2022-08-14T09:54:41;6.80;;;6.10;;
38037;SDS011;23843;51.320;12.340;2022-08-14T09:57:08;6.00;;;5.50;;
38037;SDS011;23843;51.320;12.340;2022-08-14T09:59:41;4.53;;;4.18;;
38037;SDS011;23843;51.320;12.340;2022-08-14T10:02:23;6.68;;;6.07;;
38037;SDS011;23843;51.320;12.340;2022-08-14T10:04:59;6.53;;;5.93;;
38037;SDS011;23843;51.320;12.340;2022-08-14T10:07:32;5.90;;;5.40;;
38037;SDS011;23843;51.320;12.340;2022-08-14T10:10:00;5.10;;;4.60;;
38037;SDS011;23843;51.320;12.340;2022-08-14T10:12:39;4.18;;;3.88;;
38037;SDS011;23843;51.320;12.340;2022-08-14T10:15:13;6.00;;;5.50;;
38037;SDS011;23843;51.320;12.340;2022-08-14T10:17:39;4.95;;;4.50;;
38037;SDS011;23843;51.320;12.340;2022-08-14T10:20:05;6.10;;;4.75;;
38037;SDS011;23843;51.320;12.340;2022-08-14T10:22:33;5.25;;;4.85;;
38037;SDS011;23843;51.320;12.340;2022-08-14T10:24:58;4.70;;;4.30;;
38037;SDS011;23843;51.320;12.340;2022-08-14T10:27:34;5.93;;;5.40;;
38037;SDS011;23843;51.320;12.340;2022-08-14T10:30:00;5.68;;;5.10;;
38037;SDS011;23843;51.320;12.340;2022-08-14T10:32:25;3.58;;;3.28;;
38037;SDS011;23843;51.320;12.340;2022-08-14T10:35:01;4.05;;;3.75;;
38037;SDS011;23843;51.320;12.340;2022-08-14T10:37:37;3.67;;;3.38;;
38037;SDS011;23843;51.320;12.340;2022-08-14T10:40:05;4.43;;;4.03;;
38037;SDS011;23843;51.320;12.340;2022-08-14T10:42:34;3.95;;;3.63;;
38037;SDS011;23843;51.320;12.340;2022-08-14T10:45:00;4.30;;;3.90;;
38037;SDS011;23843;51.320;12.340;2022-08-14T10:47:32;4.53;;;4.03;;
38037;SDS011;23843;51.320;12.340;2022-08-14T10:49:59;3.85;;;3.55;;
38037;SDS011;23843;51.320;12.340;2022-08-14T10:52:26;4.50;;;4.20;;
38037;SDS011;23843;51.320;12.340;2022-08-14T10:55:04;5.45;;;5.00;;
38037;SDS011;23843;51.320;12.340;2022-08-14T10:57:30;4.60;;;4.30;;
38037;SDS011;23843;51.320;12.340;2022-08-14T10:59:56;7.13;;;6.53;;
38037;SDS011;23843;51.320;12.340;2022-08-14T11:02:23;5.05;;;4.65;;
38037;SDS011;23843;51.320;12.340;2022-08-14T11:04:58;4.43;;;4.03;;
38037;SDS011;23843;51.320;12.340;2022-08-14T11:07:26;3.78;;;3.47;;
38037;SDS011;23843;51.320;12.340;2022-08-14T11:09:54;3.42;;;3.13;;
38037;SDS011;23843;51.320;12.340;2022-08-14T11:12:19;8.75;;;5.20;;
38037;SDS011;23843;51.320;12.340;2022-08-14T11:14:49;4.82;;;4.38;;
38037;SDS011;23843;51.320;12.340;2022-08-14T11:17:15;6.35;;;5.85;;
38037;SDS011;23843;51.320;12.340;2022-08-14T11:19:41;3.90;;;3.60;;
38037;SDS011;23843;51.320;12.340;2022-08-14T11:22:07;5.45;;;4.68;;
38037;SDS011;23843;51.320;12.340;2022-08-14T11:24:32;4.72;;;4.35;;
38037;SDS011;23843;51.320;12.340;2022-08-14T11:27:00;4.00;;;3.70;;
38037;SDS011;23843;51.320;12.340;2022-08-14T11:29:27;4.22;;;3.92;;
38037;SDS011;23843;51.320;12.340;2022-08-14T11:31:54;3.63;;;3.28;;
38037;SDS011;23843;51.320;12.340;2022-08-14T11:34:21;3.45;;;3.15;;
38037;SDS011;23843;51.320;12.340;2022-08-14T11:36:46;4.82;;;4.38;;
38037;SDS011;23843;51.320;12.340;2022-08-14T11:39:17;3.80;;;3.50;;
38037;SDS011;23843;51.320;12.340;2022-08-14T11:41:43;3.20;;;3.00;;
38037;SDS011;23843;51.320;12.340;2022-08-14T11:44:10;3.65;;;3.35;;
38037;SDS011;23843;51.320;12.340;2022-08-14T11:46:35;2.90;;;2.70;;
38037;SDS011;23843;51.320;12.340;2022-08-14T11:49:01;2.20;;;2.10;;
38037;SDS011;23843;51.320;12.340;2022-08-14T11:51:26;3.20;;;3.00;;
38037;SDS011;23843;51.320;12.340;2022-08-14T11:53:53;3.50;;;3.20;;
38037;SDS011;23843;51.320;12.340;2022-08-14T11:56:20;2.70;;;2.50;;
38037;SDS011;23843;51.320;12.340;2022-08-14T11:58:48;3.65;;;2.80;;
38037;SDS011;23843;51.320;12.340;2022-08-14T12:01:16;3.70;;;3.40;;
38037;SDS011;23843;51.320;12.340;2022-08-14T12:03:49;4.05;;;3.70;;
38037;SDS011;23843;51.320;12.340;2022-08-14T12:06:15;3.97;;;3.72;;
38037;SDS011;23843;51.320;12.340;2022-08-14T12:08:41;3.58;;;3.33;;
38037;SDS011;23843;51.320;12.340;2022-08-14T12:11:09;3.58;;;3.28;;
38037;SDS011;23843;51.320;12.340;2022-08-14T12:13:35;2.83;;;2.63;;
38037;SDS011;23843;51.320;12.340;2022-08-14T12:16:04;2.95;;;2.72;;
38037;SDS011;23843;51.320;12.340;2022-08-14T12:18:32;3.30;;;3.00;;
38037;SDS011;23843;51.320;12.340;2022-08-14T12:21:09;3.60;;;3.30;;
38037;SDS011;23843;51.320;12.340;2022-08-14T12:23:36;2.40;;;2.20;;
38037;SDS011;23843;51.320;12.340;2022-08-14T12:26:02;2.55;;;2.30;;
38037;SDS011;23843;51.320;12.340;2022-08-14T12:28:28;3.30;;;3.10;;
38037;SDS011;23843;51.320;12.340;2022-08-14T12:30:54;3.05;;;2.85;;
38037;SDS011;23843;51.320;12.340;2022-08-14T12:33:20;3.20;;;3.00;;
38037;SDS011;23843;51.320;12.340;2022-08-14T12:35:48;3.42;;;3.20;;
38037;SDS011;23843;51.320;12.340;2022-08-14T12:38:14;4.55;;;4.25;;
38037;SDS011;23843;51.320;12.340;2022-08-14T12:40:46;3.10;;;2.90;;
38037;SDS011;23843;51.320;12.340;2022-08-14T12:43:12;3.38;;;3.17;;
38037;SDS011;23843;51.320;12.340;2022-08-14T12:45:38;3.30;;;3.00;;
38037;SDS011;23843;51.320;12.340;2022-08-14T12:48:04;3.65;;;3.35;;
38037;SDS011;23843;51.320;12.340;2022-08-14T12:50:33;3.58;;;3.28;;
38037;SDS011;23843;51.320;12.340;2022-08-14T12:53:05;4.93;;;4.30;;
38037;SDS011;23843;51.320;12.340;2022-08-14T12:55:31;3.30;;;3.10;;
38037;SDS011;23843;51.320;12.340;2022-08-14T12:57:56;3.33;;;3.03;;
38037;SDS011;23843;51.320;12.340;2022-08-14T13:00:23;3.30;;;3.00;;
38037;SDS011;23843;51.320;12.340;2022-08-14T13:02:49;3.30;;;3.10;;
38037;SDS011;23843;51.320;12.340;2022-08-14T13:05:16;2.50;;;2.38;;
38037;SDS011;23843;51.320;12.340;2022-08-14T13:07:45;3.30;;;3.10;;
38037;SDS011;23843;51.320;12.340;2022-08-14T13:10:12;3.25;;;2.95;;
38037;SDS011;23843;51.320;12.340;2022-08-14T13:12:37;3.75;;;3.20;;
38037;SDS011;23843;51.320;12.340;2022-08-14T13:15:04;4.25;;;3.95;;
38037;SDS011;23843;51.320;12.340;2022-08-14T13:17:30;4.43;;;4.03;;
38037;SDS011;23843;51.320;12.340;2022-08-14T13:20:03;3.90;;;3.60;;
38037;SDS011;23843;51.320;12.340;2022-08-14T13:22:28;4.18;;;3.88;;
38037;SDS011;23843;51.320;12.340;2022-08-14T13:24:54;4.45;;;4.15;;
38037;SDS011;23843;51.320;12.340;2022-08-14T13:27:22;4.20;;;3.90;;
38037;SDS011;23843;51.320;12.340;2022-08-14T13:29:49;3.40;;;3.20;;
38037;SDS011;23843;51.320;12.340;2022-08-14T13:32:16;3.80;;;3.50;;
38037;SDS011;23843;51.320;12.340;2022-08-14T13:34:42;4.25;;;3.85;;
38037;SDS011;23843;51.320;12.340;2022-08-14T13:37:11;4.07;;;3.78;;
38037;SDS011;23843;51.320;12.340;2022-08-14T13:39:38;4.95;;;3.80;;
38037;SDS011;23843;51.320;12.340;2022-08-14T13:42:04;4.30;;;3.90;;
38037;SDS011;23843;51.320;12.340;2022-08-14T13:44:31;3.70;;;3.40;;
38037;SDS011;23843;51.320;12.340;2022-08-14T13:46:57;4.10;;;3.80;;
38037;SDS011;23843;51.320;12.340;2022-08-14T13:49:23;4.18;;;3.88;;
38037;SDS011;23843;51.320;12.340;2022-08-14T13:51:48;3.15;;;2.95;;
38037;SDS011;23843;51.320;12.340;2022-08-14T13:54:17;3.38;;;3.05;;
38037;SDS011;23843;51.320;12.340;2022-08-14T13:56:44;3.80;;;3.50;;
38037;SDS011;23843;51.320;12.340;2022-08-14T13:59:10;5.40;;;3.75;;
38037;SDS011;23843;51.320;12.340;2022-08-14T14:01:37;3.70;;;3.40;;
38037;SDS011;23843;51.320;12.340;2022-08-14T14:04:03;3.00;;;2.80;;
38037;SDS011;23843;51.320;12.340;2022-08-14T14:06:29;3.17;;;2.88;;
38037;SDS011;23843;51.320;12.340;2022-08-14T14:08:56;5.55;;;5.15;;
38037;SDS011;23843;51.320;12.340;2022-08-14T14:11:22;3.83;;;3.53;;
38037;SDS011;23843;51.320;12.340;2022-08-14T14:13:49;3.63;;;3.33;;
38037;SDS011;23843;51.320;12.340;2022-08-14T14:16:15;2.75;;;2.55;;
38037;SDS011;23843;51.320;12.340;2022-08-14T14:18:42;1.98;;;1.88;;
38037;SDS011;23843;51.320;12.340;2022-08-14T14:21:10;1.52;;;1.42;;
38037;SDS011;23843;51.320;12.340;2022-08-14T14:23:36;1.83;;;1.73;;
38037;SDS011;23843;51.320;12.340;2022-08-14T14:26:01;3.70;;;3.40;;
38037;SDS011;23843;51.320;12.340;2022-08-14T14:28:28;3.35;;;3.05;;
38037;SDS011;23843;51.320;12.340;2022-08-14T14:30:54;3.40;;;3.10;;
38037;SDS011;23843;51.320;12.340;2022-08-14T14:33:20;4.43;;;3.30;;
38037;SDS011;23843;51.320;12.340;2022-08-14T14:35:49;3.20;;;2.90;;
38037;SDS011;23843;51.320;12.340;2022-08-14T14:38:15;2.75;;;2.55;;
38037;SDS011;23843;51.320;12.340;2022-08-14T14:40:41;3.30;;;2.60;;
38037;SDS011;23843;51.320;12.340;2022-08-14T14:43:08;2.60;;;2.40;;
38037;SDS011;23843;51.320;12.340;2022-08-14T14:45:35;4.25;;;3.40;;
38037;SDS011;23843;51.320;12.340;2022-08-14T14:48:01;3.80;;;3.50;;
38037;SDS011;23843;51.320;12.340;2022-08-14T14:50:30;4.88;;;4.47;;
38037;SDS011;23843;51.320;12.340;2022-08-14T14:52:58;4.65;;;4.35;;
38037;SDS011;23843;51.320;12.340;2022-08-14T14:55:23;3.53;;;3.22;;
38037;SDS011;23843;51.320;12.340;2022-08-14T14:57:50;2.97;;;2.78;;
38037;SDS011;23843;51.320;12.340;2022-08-14T15:00:15;3.75;;;2.70;;
38037;SDS011;23843;51.320;12.340;2022-08-14T15:02:43;2.80;;;2.60;;
38037;SDS011;23843;51.320;12.340;2022-08-14T15:05:10;2.78;;;2.55;;
38037;SDS011;23843;51.320;12.340;2022-08-14T15:07:36;2.92;;;2.63;;
38037;SDS011;23843;51.320;12.340;2022-08-14T15:10:04;2.40;;;2.20;;
38037;SDS011;23843;51.320;12.340;2022-08-14T15:12:31;2.97;;;2.78;;
38037;SDS011;23843;51.320;12.340;2022-08-14T15:14:56;2.45;;;2.30;;
38037;SDS011;23843;51.320;12.340;2022-08-14T15:17:21;1.67;;;1.58;;
38037;SDS011;23843;51.320;12.340;2022-08-14T15:19:47;2.08;;;1.98;;
38037;SDS011;23843;51.320;12.340;2022-08-14T15:22:12;1.70;;;1.60;;
38037;SDS011;23843;51.320;12.340;2022-08-14T15:24:38;2.10;;;1.92;;
38037;SDS011;23843;51.320;12.340;2022-08-14T15:27:05;3.20;;;2.90;;
38037;SDS011;23843;51.320;12.340;2022-08-14T15:29:30;3.58;;;3.25;;
38037;SDS011;23843;51.320;12.340;2022-08-14T15:31:56;3.13;;;2.92;;
38037;SDS011;23843;51.320;12.340;2022-08-14T15:34:21;3.20;;;3.00;;
38037;SDS011;23843;51.320;12.340;2022-08-14T15:36:47;3.45;;;3.25;;
38037;SDS011;23843;51.320;12.340;2022-08-14T15:39:12;4.05;;;3.67;;
38037;SDS011;23843;51.320;12.340;2022-08-14T15:41:38;3.33;;;3.10;;
38037;SDS011;23843;51.320;12.340;2022-08-14T15:44:05;3.22;;;3.00;;
38037;SDS011;23843;51.320;12.340;2022-08-14T15:46:31;3.15;;;2.88;;
38037;SDS011;23843;51.320;12.340;2022-08-14T15:48:57;2.17;;;2.08;;
38037;SDS011;23843;51.320;12.340;2022-08-14T15:51:23;1.88;;;1.77;;
38037;SDS011;23843;51.320;12.340;2022-08-14T15:53:49;3.50;;;3.20;;
38037;SDS011;23843;51.320;12.340;2022-08-14T15:56:14;2.13;;;2.03;;
38037;SDS011;23843;51.320;12.340;2022-08-14T15:58:41;2.00;;;1.90;;
38037;SDS011;23843;51.320;12.340;2022-08-14T16:01:08;2.00;;;1.90;;
38037;SDS011;23843;51.320;12.340;2022-08-14T16:03:34;3.10;;;2.80;;
38037;SDS011;23843;51.320;12.340;2022-08-14T16:06:00;2.70;;;2.50;;
38037;SDS011;23843;51.320;12.340;2022-08-14T16:08:25;3.70;;;3.40;;
38037;SDS011;23843;51.320;12.340;2022-08-14T16:10:50;3.90;;;3.60;;
38037;SDS011;23843;51.320;12.340;2022-08-14T16:13:16;3.78;;;3.47;;
38037;SDS011;23843;51.320;12.340;2022-08-14T16:15:42;5.72;;;5.22;;
38037;SDS011;23843;51.320;12.340;2022-08-14T16:18:10;7.50;;;6.80;;
38037;SDS011;23843;51.320;12.340;2022-08-14T16:20:37;7.47;;;5.93;;
38037;SDS011;23843;51.320;12.340;2022-08-14T16:23:05;4.20;;;3.80;;
38037;SDS011;23843;51.320;12.340;2022-08-14T16:25:31;6.43;;;5.75;;
38037;SDS011;23843;51.320;12.340;2022-08-14T16:27:57;4.65;;;4.25;;
38037;SDS011;23843;51.320;12.340;2022-08-14T16:30:22;4.25;;;3.95;;
38037;SDS011;23843;51.320;12.340;2022-08-14T16:32:48;5.20;;;4.80;;
38037;SDS011;23843;51.320;12.340;2022-08-14T16:35:15;3.65;;;3.35;;
38037;SDS011;23843;51.320;12.340;2022-08-14T16:37:40;2.90;;;2.70;;
38037;SDS011;23843;51.320;12.340;2022-08-14T16:40:06;5.35;;;4.90;;
38037;SDS011;23843;51.320;12.340;2022-08-14T16:42:33;4.43;;;4.03;;
38037;SDS011;23843;51.320;12.340;2022-08-14T16:44:59;5.30;;;4.80;;
38037;SDS011;23843;51.320;12.340;2022-08-14T16:47:25;4.10;;;3.80;;
38037;SDS011;23843;51.320;12.340;2022-08-14T16:49:50;5.45;;;4.60;;
38037;SDS011;23843;51.320;12.340;2022-08-14T16:52:17;5.53;;;5.00;;
38037;SDS011;23843;51.320;12.340;2022-08-14T16:54:42;3.92;;;3.63;;
38037;SDS011;23843;51.320;12.340;2022-08-14T16:57:13;3.70;;;3.40;;
38037;SDS011;23843;51.320;12.340;2022-08-14T16:59:40;2.90;;;2.70;;
38037;SDS011;23843;51.320;12.340;2022-08-14T17:02:07;3.13;;;2.92;;
38037;SDS011;23843;51.320;12.340;2022-08-14T17:04:32;2.28;;;2.10;;
38037;SDS011;23843;51.320;12.340;2022-08-14T17:06:59;6.35;;;5.13;;
38037;SDS011;23843;51.320;12.340;2022-08-14T17:09:34;7.07;;;6.35;;
38037;SDS011;23843;51.320;12.340;2022-08-14T17:12:03;4.78;;;4.38;;
38037;SDS011;23843;51.320;12.340;2022-08-14T17:14:48;4.70;;;4.30;;
38037;SDS011;23843;51.320;12.340;2022-08-14T17:17:15;2.55;;;2.35;;
38037;SDS011;23843;51.320;12.340;2022-08-14T17:19:41;3.20;;;3.00;;
38037;SDS011;23843;51.320;12.340;2022-08-14T17:22:08;2.97;;;2.78;;
38037;SDS011;23843;51.320;12.340;2022-08-14T17:24:35;4.13;;;3.70;;
38037;SDS011;23843;51.320;12.340;2022-08-14T17:27:01;5.95;;;5.35;;
38037;SDS011;23843;51.320;12.340;2022-08-14T17:29:27;3.83;;;3.53;;
38037;SDS011;23843;51.320;12.340;2022-08-14T17:31:55;4.25;;;3.85;;
38037;SDS011;23843;51.320;12.340;2022-08-14T17:34:21;4.82;;;4.47;;
38037;SDS011;23843;51.320;12.340;2022-08-14T17:36:47;5.05;;;4.65;;
38037;SDS011;23843;51.320;12.340;2022-08-14T17:39:15;3.95;;;3.60;;
38037;SDS011;23843;51.320;12.340;2022-08-14T17:41:43;5.10;;;4.60;;
38037;SDS011;23843;51.320;12.340;2022-08-14T17:44:11;5.57;;;5.07;;
38037;SDS011;23843;51.320;12.340;2022-08-14T17:46:42;5.43;;;5.03;;
38037;SDS011;23843;51.320;12.340;2022-08-14T17:49:09;3.83;;;3.53;;
38037;SDS011;23843;51.320;12.340;2022-08-14T17:51:51;4.28;;;3.97;;
38037;SDS011;23843;51.320;12.340;2022-08-14T17:54:18;3.97;;;3.58;;
38037;SDS011;23843;51.320;12.340;2022-08-14T17:56:45;3.33;;;3.10;;
38037;SDS011;23843;51.320;12.340;2022-08-14T17:59:11;2.60;;;2.40;;
38037;SDS011;23843;51.320;12.340;2022-08-14T18:01:37;3.30;;;3.10;;
38037;SDS011;23843;51.320;12.340;2022-08-14T18:04:03;6.25;;;5.50;;
38037;SDS011;23843;51.320;12.340;2022-08-14T18:06:31;3.90;;;3.60;;
38037;SDS011;23843;51.320;12.340;2022-08-14T18:08:57;4.05;;;3.70;;
38037;SDS011;23843;51.320;12.340;2022-08-14T18:11:22;5.03;;;4.63;;
38037;SDS011;23843;51.320;12.340;2022-08-14T18:13:51;4.43;;;4.03;;
38037;SDS011;23843;51.320;12.340;2022-08-14T18:16:18;4.35;;;3.95;;
38037;SDS011;23843;51.320;12.340;2022-08-14T18:18:44;4.45;;;4.07;;
38037;SDS011;23843;51.320;12.340;2022-08-14T18:21:10;4.05;;;3.75;;
38037;SDS011;23843;51.320;12.340;2022-08-14T18:23:35;3.70;;;3.40;;
38037;SDS011;23843;51.320;12.340;2022-08-14T18:26:01;2.80;;;2.60;;
38037;SDS011;23843;51.320;12.340;2022-08-14T18:28:30;3.53;;;3.33;;
38037;SDS011;23843;51.320;12.340;2022-08-14T18:34:05;2.33;;;2.13;;
38037;SDS011;23843;51.320;12.340;2022-08-14T18:36:39;5.10;;;4.15;;
38037;SDS011;23843;51.320;12.340;2022-08-14T18:39:25;2.75;;;2.55;;
38037;SDS011;23843;51.320;12.340;2022-08-14T18:41:53;1.70;;;1.60;;
38037;SDS011;23843;51.320;12.340;2022-08-14T18:47:23;2.80;;;2.60;;
38037;SDS011;23843;51.320;12.340;2022-08-14T18:49:59;2.10;;;2.00;;
38037;SDS011;23843;51.320;12.340;2022-08-14T18:52:39;1.50;;;1.40;;
38037;SDS011;23843;51.320;12.340;2022-08-14T18:58:10;1.20;;;1.10;;
38037;SDS011;23843;51.320;12.340;2022-08-14T19:00:44;1.13;;;1.13;;
38037;SDS011;23843;51.320;12.340;2022-08-14T19:06:16;1.17;;;1.08;;
38037;SDS011;23843;51.320;12.340;2022-08-14T19:08:43;1.25;;;1.15;;
38037;SDS011;23843;51.320;12.340;2022-08-14T19:14:10;1.10;;;1.10;;
38037;SDS011;23843;51.320;12.340;2022-08-14T19:16:38;1.30;;;1.20;;
38037;SDS011;23843;51.320;12.340;2022-08-14T19:19:06;0.90;;;0.90;;